Ira, Michigan
Current Conditions -  °F | °C
As of 3:55 PM on Monday 24 Nov 2014 (Local Time) from KMTC Reporting Station
Broken Clouds Broken Clouds  
Wind Chill: 33°   Ceiling: 2900
Heat Index: 44°   Visibility: 12mi
Dew Point: 34°   Wind: 32mph
Humidity: 70%   Direction: 230°SW
Pressure: 29.32"   Gusts: 45mph
Location:  42.7011°N, 82.659°W
Report Text: KMTC 242055Z 23028G39KT 12SM BKN029 06/01 A2932 RMK PK WND 22041/05 PRESRR SLP939 T00640013 53078
Loading
Personal Weather Stations






























Interactive Weather Map New forecast layout! Learn more

10-Day Weather Forecast

Advertisements
Track Severe Weather on mobile